sensor_id;sensor_type;location;lat;lon;timestamp;P1;durP1;ratioP1;P2;durP2;ratioP2
8086;SDS011;4086;54.412;9.980;2023-03-03T00:02:22;25.67;;;16.77;;
8086;SDS011;4086;54.412;9.980;2023-03-03T00:04:48;26.83;;;16.03;;
8086;SDS011;4086;54.412;9.980;2023-03-03T00:07:16;27.77;;;15.97;;
8086;SDS011;4086;54.412;9.980;2023-03-03T00:09:47;27.67;;;16.07;;
8086;SDS011;4086;54.412;9.980;2023-03-03T00:12:17;23.13;;;15.10;;
8086;SDS011;4086;54.412;9.980;2023-03-03T00:14:46;24.17;;;16.17;;
8086;SDS011;4086;54.412;9.980;2023-03-03T00:17:14;26.20;;;15.97;;
8086;SDS011;4086;54.412;9.980;2023-03-03T00:19:46;22.70;;;15.40;;
8086;SDS011;4086;54.412;9.980;2023-03-03T00:22:14;23.93;;;15.60;;
8086;SDS011;4086;54.412;9.980;2023-03-03T00:24:48;21.10;;;14.83;;
8086;SDS011;4086;54.412;9.980;2023-03-03T00:27:15;23.03;;;15.00;;
8086;SDS011;4086;54.412;9.980;2023-03-03T00:29:54;26.33;;;15.83;;
8086;SDS011;4086;54.412;9.980;2023-03-03T00:32:22;25.60;;;16.03;;
8086;SDS011;4086;54.412;9.980;2023-03-03T00:34:50;22.00;;;14.90;;
8086;SDS011;4086;54.412;9.980;2023-03-03T00:37:25;24.97;;;16.17;;
8086;SDS011;4086;54.412;9.980;2023-03-03T00:39:53;27.37;;;17.20;;
8086;SDS011;4086;54.412;9.980;2023-03-03T00:42:25;24.53;;;16.50;;
8086;SDS011;4086;54.412;9.980;2023-03-03T00:44:55;23.80;;;15.93;;
8086;SDS011;4086;54.412;9.980;2023-03-03T00:47:26;25.90;;;17.13;;
8086;SDS011;4086;54.412;9.980;2023-03-03T00:49:54;29.93;;;16.50;;
8086;SDS011;4086;54.412;9.980;2023-03-03T00:52:21;22.70;;;15.43;;
8086;SDS011;4086;54.412;9.980;2023-03-03T00:54:52;23.40;;;15.63;;
8086;SDS011;4086;54.412;9.980;2023-03-03T00:57:19;25.10;;;16.33;;
8086;SDS011;4086;54.412;9.980;2023-03-03T00:59:45;24.10;;;15.50;;
8086;SDS011;4086;54.412;9.980;2023-03-03T01:02:11;24.03;;;16.00;;
8086;SDS011;4086;54.412;9.980;2023-03-03T01:04:38;21.07;;;14.90;;
8086;SDS011;4086;54.412;9.980;2023-03-03T01:07:05;22.07;;;15.10;;
8086;SDS011;4086;54.412;9.980;2023-03-03T01:09:33;22.83;;;15.53;;
8086;SDS011;4086;54.412;9.980;2023-03-03T01:11:59;21.10;;;15.00;;
8086;SDS011;4086;54.412;9.980;2023-03-03T01:14:25;23.67;;;15.77;;
8086;SDS011;4086;54.412;9.980;2023-03-03T01:16:52;21.33;;;14.30;;
8086;SDS011;4086;54.412;9.980;2023-03-03T01:19:18;21.03;;;14.10;;
8086;SDS011;4086;54.412;9.980;2023-03-03T01:21:45;19.10;;;13.50;;
8086;SDS011;4086;54.412;9.980;2023-03-03T01:24:11;19.50;;;13.87;;
8086;SDS011;4086;54.412;9.980;2023-03-03T01:26:39;18.73;;;13.27;;
8086;SDS011;4086;54.412;9.980;2023-03-03T01:29:05;20.53;;;14.23;;
8086;SDS011;4086;54.412;9.980;2023-03-03T01:31:32;19.57;;;13.87;;
8086;SDS011;4086;54.412;9.980;2023-03-03T01:33:58;20.57;;;13.97;;
8086;SDS011;4086;54.412;9.980;2023-03-03T01:36:25;21.13;;;13.93;;
8086;SDS011;4086;54.412;9.980;2023-03-03T01:38:53;19.07;;;13.10;;
8086;SDS011;4086;54.412;9.980;2023-03-03T01:41:19;18.63;;;13.03;;
8086;SDS011;4086;54.412;9.980;2023-03-03T01:43:48;17.23;;;12.73;;
8086;SDS011;4086;54.412;9.980;2023-03-03T01:46:29;15.67;;;11.83;;
8086;SDS011;4086;54.412;9.980;2023-03-03T01:49:00;18.27;;;12.47;;
8086;SDS011;4086;54.412;9.980;2023-03-03T01:51:30;18.90;;;13.27;;
8086;SDS011;4086;54.412;9.980;2023-03-03T01:53:59;17.37;;;12.47;;
8086;SDS011;4086;54.412;9.980;2023-03-03T01:56:26;17.10;;;11.00;;
8086;SDS011;4086;54.412;9.980;2023-03-03T01:58:55;16.43;;;11.53;;
8086;SDS011;4086;54.412;9.980;2023-03-03T02:01:25;14.93;;;11.30;;
8086;SDS011;4086;54.412;9.980;2023-03-03T02:03:52;13.73;;;11.07;;
8086;SDS011;4086;54.412;9.980;2023-03-03T02:06:21;17.30;;;11.57;;
8086;SDS011;4086;54.412;9.980;2023-03-03T02:08:50;16.63;;;12.10;;
8086;SDS011;4086;54.412;9.980;2023-03-03T02:11:19;14.67;;;11.17;;
8086;SDS011;4086;54.412;9.980;2023-03-03T02:13:46;14.63;;;11.03;;
8086;SDS011;4086;54.412;9.980;2023-03-03T02:16:14;13.77;;;10.47;;
8086;SDS011;4086;54.412;9.980;2023-03-03T02:18:40;15.07;;;10.90;;
8086;SDS011;4086;54.412;9.980;2023-03-03T02:21:09;14.97;;;10.27;;
8086;SDS011;4086;54.412;9.980;2023-03-03T02:23:37;12.50;;;10.00;;
8086;SDS011;4086;54.412;9.980;2023-03-03T02:26:08;13.33;;;9.40;;
8086;SDS011;4086;54.412;9.980;2023-03-03T02:28:36;12.13;;;9.63;;
8086;SDS011;4086;54.412;9.980;2023-03-03T02:31:05;14.10;;;10.23;;
8086;SDS011;4086;54.412;9.980;2023-03-03T02:33:34;12.30;;;9.00;;
8086;SDS011;4086;54.412;9.980;2023-03-03T02:36:01;11.93;;;8.90;;
8086;SDS011;4086;54.412;9.980;2023-03-03T02:38:28;11.17;;;8.33;;
8086;SDS011;4086;54.412;9.980;2023-03-03T02:40:58;10.57;;;8.00;;
8086;SDS011;4086;54.412;9.980;2023-03-03T02:43:30;13.07;;;9.23;;
8086;SDS011;4086;54.412;9.980;2023-03-03T02:46:02;13.13;;;8.90;;
8086;SDS011;4086;54.412;9.980;2023-03-03T02:48:28;10.80;;;8.43;;
8086;SDS011;4086;54.412;9.980;2023-03-03T02:50:55;11.73;;;8.60;;
8086;SDS011;4086;54.412;9.980;2023-03-03T02:53:22;11.33;;;8.13;;
8086;SDS011;4086;54.412;9.980;2023-03-03T02:55:49;11.07;;;8.63;;
8086;SDS011;4086;54.412;9.980;2023-03-03T02:58:15;11.60;;;8.37;;
8086;SDS011;4086;54.412;9.980;2023-03-03T03:00:43;13.70;;;8.47;;
8086;SDS011;4086;54.412;9.980;2023-03-03T03:03:11;11.73;;;8.20;;
8086;SDS011;4086;54.412;9.980;2023-03-03T03:05:38;12.37;;;8.87;;
8086;SDS011;4086;54.412;9.980;2023-03-03T03:08:04;12.23;;;8.60;;
8086;SDS011;4086;54.412;9.980;2023-03-03T03:10:31;10.30;;;8.20;;
8086;SDS011;4086;54.412;9.980;2023-03-03T03:12:57;11.43;;;7.77;;
8086;SDS011;4086;54.412;9.980;2023-03-03T03:15:24;10.77;;;8.23;;
8086;SDS011;4086;54.412;9.980;2023-03-03T03:17:51;9.57;;;7.33;;
8086;SDS011;4086;54.412;9.980;2023-03-03T03:20:18;10.57;;;6.97;;
8086;SDS011;4086;54.412;9.980;2023-03-03T03:22:44;10.17;;;7.33;;
8086;SDS011;4086;54.412;9.980;2023-03-03T03:25:10;10.23;;;7.67;;
8086;SDS011;4086;54.412;9.980;2023-03-03T03:27:37;12.63;;;8.93;;
8086;SDS011;4086;54.412;9.980;2023-03-03T03:30:04;14.20;;;8.90;;
8086;SDS011;4086;54.412;9.980;2023-03-03T03:32:30;13.07;;;9.30;;
8086;SDS011;4086;54.412;9.980;2023-03-03T03:34:58;11.07;;;8.43;;
8086;SDS011;4086;54.412;9.980;2023-03-03T03:37:25;11.60;;;8.00;;
8086;SDS011;4086;54.412;9.980;2023-03-03T03:39:51;14.33;;;9.17;;
8086;SDS011;4086;54.412;9.980;2023-03-03T03:42:18;12.47;;;9.40;;
8086;SDS011;4086;54.412;9.980;2023-03-03T03:44:44;12.30;;;9.03;;
8086;SDS011;4086;54.412;9.980;2023-03-03T03:47:10;12.37;;;8.87;;
8086;SDS011;4086;54.412;9.980;2023-03-03T03:49:37;10.83;;;8.07;;
8086;SDS011;4086;54.412;9.980;2023-03-03T03:52:05;12.80;;;8.57;;
8086;SDS011;4086;54.412;9.980;2023-03-03T03:54:31;10.33;;;8.00;;
8086;SDS011;4086;54.412;9.980;2023-03-03T03:56:57;10.43;;;8.10;;
8086;SDS011;4086;54.412;9.980;2023-03-03T03:59:24;13.77;;;8.37;;
8086;SDS011;4086;54.412;9.980;2023-03-03T04:01:50;13.00;;;8.77;;
8086;SDS011;4086;54.412;9.980;2023-03-03T04:04:16;12.20;;;8.80;;
8086;SDS011;4086;54.412;9.980;2023-03-03T04:06:43;14.37;;;9.30;;
8086;SDS011;4086;54.412;9.980;2023-03-03T04:09:10;15.10;;;9.87;;
8086;SDS011;4086;54.412;9.980;2023-03-03T04:11:37;13.33;;;9.40;;
8086;SDS011;4086;54.412;9.980;2023-03-03T04:14:03;14.10;;;9.83;;
8086;SDS011;4086;54.412;9.980;2023-03-03T04:16:30;12.17;;;9.40;;
8086;SDS011;4086;54.412;9.980;2023-03-03T04:18:56;12.17;;;9.00;;
8086;SDS011;4086;54.412;9.980;2023-03-03T04:21:23;12.47;;;9.67;;
8086;SDS011;4086;54.412;9.980;2023-03-03T04:23:50;13.77;;;9.90;;
8086;SDS011;4086;54.412;9.980;2023-03-03T04:26:18;14.13;;;10.07;;
8086;SDS011;4086;54.412;9.980;2023-03-03T04:28:44;14.37;;;9.97;;
8086;SDS011;4086;54.412;9.980;2023-03-03T04:31:11;13.30;;;9.03;;
8086;SDS011;4086;54.412;9.980;2023-03-03T04:33:37;12.93;;;8.20;;
8086;SDS011;4086;54.412;9.980;2023-03-03T04:36:04;14.00;;;8.70;;
8086;SDS011;4086;54.412;9.980;2023-03-03T04:38:31;11.83;;;8.20;;
8086;SDS011;4086;54.412;9.980;2023-03-03T04:40:57;13.00;;;8.53;;
8086;SDS011;4086;54.412;9.980;2023-03-03T04:43:25;13.13;;;9.27;;
8086;SDS011;4086;54.412;9.980;2023-03-03T04:45:51;15.17;;;8.20;;
8086;SDS011;4086;54.412;9.980;2023-03-03T04:48:18;17.13;;;8.63;;
8086;SDS011;4086;54.412;9.980;2023-03-03T04:50:44;14.17;;;8.53;;
8086;SDS011;4086;54.412;9.980;2023-03-03T04:53:10;10.33;;;8.07;;
8086;SDS011;4086;54.412;9.980;2023-03-03T04:55:37;16.00;;;8.90;;
8086;SDS011;4086;54.412;9.980;2023-03-03T04:58:04;12.70;;;8.07;;
8086;SDS011;4086;54.412;9.980;2023-03-03T05:00:32;13.13;;;7.87;;
8086;SDS011;4086;54.412;9.980;2023-03-03T05:02:58;10.60;;;7.60;;
8086;SDS011;4086;54.412;9.980;2023-03-03T05:05:24;10.27;;;7.70;;
8086;SDS011;4086;54.412;9.980;2023-03-03T05:07:51;12.53;;;7.67;;
8086;SDS011;4086;54.412;9.980;2023-03-03T05:10:17;10.07;;;6.63;;
8086;SDS011;4086;54.412;9.980;2023-03-03T05:12:44;9.70;;;7.07;;
8086;SDS011;4086;54.412;9.980;2023-03-03T05:15:11;9.50;;;6.60;;
8086;SDS011;4086;54.412;9.980;2023-03-03T05:17:39;9.77;;;6.30;;
8086;SDS011;4086;54.412;9.980;2023-03-03T05:20:06;9.37;;;6.50;;
8086;SDS011;4086;54.412;9.980;2023-03-03T05:22:34;8.33;;;5.90;;
8086;SDS011;4086;54.412;9.980;2023-03-03T05:25:00;7.27;;;5.80;;
8086;SDS011;4086;54.412;9.980;2023-03-03T05:27:27;6.83;;;5.10;;
8086;SDS011;4086;54.412;9.980;2023-03-03T05:29:53;7.43;;;5.20;;
8086;SDS011;4086;54.412;9.980;2023-03-03T05:32:20;8.97;;;6.10;;
8086;SDS011;4086;54.412;9.980;2023-03-03T05:34:47;6.73;;;5.37;;
8086;SDS011;4086;54.412;9.980;2023-03-03T05:37:14;7.40;;;6.00;;
8086;SDS011;4086;54.412;9.980;2023-03-03T05:39:41;7.43;;;5.97;;
8086;SDS011;4086;54.412;9.980;2023-03-03T05:42:08;7.77;;;5.80;;
8086;SDS011;4086;54.412;9.980;2023-03-03T05:44:37;9.90;;;6.90;;
8086;SDS011;4086;54.412;9.980;2023-03-03T05:47:03;8.33;;;5.60;;
8086;SDS011;4086;54.412;9.980;2023-03-03T05:49:30;11.63;;;6.53;;
8086;SDS011;4086;54.412;9.980;2023-03-03T05:51:57;14.17;;;6.20;;
8086;SDS011;4086;54.412;9.980;2023-03-03T05:54:25;9.00;;;6.23;;
8086;SDS011;4086;54.412;9.980;2023-03-03T05:56:51;7.43;;;6.20;;
8086;SDS011;4086;54.412;9.980;2023-03-03T05:59:17;6.67;;;5.87;;
8086;SDS011;4086;54.412;9.980;2023-03-03T06:01:44;7.93;;;6.20;;
8086;SDS011;4086;54.412;9.980;2023-03-03T06:04:11;14.43;;;5.87;;
8086;SDS011;4086;54.412;9.980;2023-03-03T06:06:37;15.80;;;6.70;;
8086;SDS011;4086;54.412;9.980;2023-03-03T06:09:05;15.80;;;5.90;;
8086;SDS011;4086;54.412;9.980;2023-03-03T06:11:31;17.40;;;6.87;;
8086;SDS011;4086;54.412;9.980;2023-03-03T06:13:57;9.03;;;5.67;;
8086;SDS011;4086;54.412;9.980;2023-03-03T06:16:24;21.73;;;6.43;;
8086;SDS011;4086;54.412;9.980;2023-03-03T06:18:50;10.53;;;5.97;;
8086;SDS011;4086;54.412;9.980;2023-03-03T06:21:17;10.77;;;5.50;;
8086;SDS011;4086;54.412;9.980;2023-03-03T06:23:43;7.20;;;5.20;;
8086;SDS011;4086;54.412;9.980;2023-03-03T06:26:11;9.50;;;5.40;;
8086;SDS011;4086;54.412;9.980;2023-03-03T06:28:38;7.17;;;4.77;;
8086;SDS011;4086;54.412;9.980;2023-03-03T06:31:04;12.40;;;6.27;;
8086;SDS011;4086;54.412;9.980;2023-03-03T06:33:30;8.57;;;6.00;;
8086;SDS011;4086;54.412;9.980;2023-03-03T06:35:57;10.80;;;6.87;;
8086;SDS011;4086;54.412;9.980;2023-03-03T06:38:23;12.87;;;8.07;;
8086;SDS011;4086;54.412;9.980;2023-03-03T06:40:50;12.70;;;7.30;;
8086;SDS011;4086;54.412;9.980;2023-03-03T06:43:18;12.30;;;7.53;;
8086;SDS011;4086;54.412;9.980;2023-03-03T06:45:44;9.50;;;7.37;;
8086;SDS011;4086;54.412;9.980;2023-03-03T06:48:11;8.30;;;6.70;;
8086;SDS011;4086;54.412;9.980;2023-03-03T06:50:37;10.67;;;6.97;;
8086;SDS011;4086;54.412;9.980;2023-03-03T06:53:06;11.80;;;6.60;;
8086;SDS011;4086;54.412;9.980;2023-03-03T06:55:35;20.43;;;7.13;;
8086;SDS011;4086;54.412;9.980;2023-03-03T06:58:04;30.37;;;6.90;;
8086;SDS011;4086;54.412;9.980;2023-03-03T07:00:34;34.43;;;8.20;;
8086;SDS011;4086;54.412;9.980;2023-03-03T07:03:03;13.53;;;6.50;;
8086;SDS011;4086;54.412;9.980;2023-03-03T07:05:33;19.03;;;8.30;;
8086;SDS011;4086;54.412;9.980;2023-03-03T07:07:59;13.07;;;8.70;;
8086;SDS011;4086;54.412;9.980;2023-03-03T07:10:26;14.03;;;9.17;;
8086;SDS011;4086;54.412;9.980;2023-03-03T07:12:55;12.50;;;8.77;;
8086;SDS011;4086;54.412;9.980;2023-03-03T07:15:24;14.33;;;9.00;;
8086;SDS011;4086;54.412;9.980;2023-03-03T07:17:55;11.13;;;8.10;;
8086;SDS011;4086;54.412;9.980;2023-03-03T07:20:24;10.10;;;8.20;;
8086;SDS011;4086;54.412;9.980;2023-03-03T07:22:53;21.63;;;8.37;;
8086;SDS011;4086;54.412;9.980;2023-03-03T07:25:21;14.50;;;9.27;;
8086;SDS011;4086;54.412;9.980;2023-03-03T07:27:54;21.30;;;9.27;;
8086;SDS011;4086;54.412;9.980;2023-03-03T07:30:23;15.63;;;9.23;;
8086;SDS011;4086;54.412;9.980;2023-03-03T07:32:51;11.47;;;8.80;;
8086;SDS011;4086;54.412;9.980;2023-03-03T07:35:26;14.97;;;10.20;;
8086;SDS011;4086;54.412;9.980;2023-03-03T07:37:56;13.00;;;9.73;;
8086;SDS011;4086;54.412;9.980;2023-03-03T07:40:30;14.40;;;10.10;;
8086;SDS011;4086;54.412;9.980;2023-03-03T07:43:13;14.00;;;10.23;;
8086;SDS011;4086;54.412;9.980;2023-03-03T07:45:47;12.73;;;9.60;;
8086;SDS011;4086;54.412;9.980;2023-03-03T07:48:16;13.57;;;10.73;;
8086;SDS011;4086;54.412;9.980;2023-03-03T07:50:46;18.40;;;10.90;;
8086;SDS011;4086;54.412;9.980;2023-03-03T07:53:14;23.03;;;10.50;;
8086;SDS011;4086;54.412;9.980;2023-03-03T07:55:47;13.93;;;9.70;;
8086;SDS011;4086;54.412;9.980;2023-03-03T07:58:15;18.00;;;9.80;;
8086;SDS011;4086;54.412;9.980;2023-03-03T08:03:47;13.90;;;10.10;;
8086;SDS011;4086;54.412;9.980;2023-03-03T08:06:26;13.17;;;9.77;;
8086;SDS011;4086;54.412;9.980;2023-03-03T08:09:00;13.00;;;9.87;;
8086;SDS011;4086;54.412;9.980;2023-03-03T08:11:27;11.80;;;9.40;;
8086;SDS011;4086;54.412;9.980;2023-03-03T08:13:54;18.90;;;9.40;;
8086;SDS011;4086;54.412;9.980;2023-03-03T08:16:23;11.00;;;9.00;;
8086;SDS011;4086;54.412;9.980;2023-03-03T08:18:53;11.17;;;8.53;;
8086;SDS011;4086;54.412;9.980;2023-03-03T08:21:19;11.00;;;8.80;;
8086;SDS011;4086;54.412;9.980;2023-03-03T08:23:48;9.97;;;8.57;;
8086;SDS011;4086;54.412;9.980;2023-03-03T08:26:15;8.67;;;7.73;;
8086;SDS011;4086;54.412;9.980;2023-03-03T08:28:42;8.50;;;7.70;;
8086;SDS011;4086;54.412;9.980;2023-03-03T08:31:09;11.80;;;8.10;;
8086;SDS011;4086;54.412;9.980;2023-03-03T08:33:36;9.80;;;8.63;;
8086;SDS011;4086;54.412;9.980;2023-03-03T08:36:03;8.37;;;7.07;;
8086;SDS011;4086;54.412;9.980;2023-03-03T08:38:30;8.57;;;7.67;;
8086;SDS011;4086;54.412;9.980;2023-03-03T08:40:57;9.07;;;7.50;;
8086;SDS011;4086;54.412;9.980;2023-03-03T08:43:24;9.23;;;8.17;;
8086;SDS011;4086;54.412;9.980;2023-03-03T08:45:51;7.93;;;7.13;;
8086;SDS011;4086;54.412;9.980;2023-03-03T08:48:19;8.90;;;7.47;;
8086;SDS011;4086;54.412;9.980;2023-03-03T08:50:46;7.60;;;6.90;;
8086;SDS011;4086;54.412;9.980;2023-03-03T08:53:13;8.20;;;7.13;;
8086;SDS011;4086;54.412;9.980;2023-03-03T08:55:39;8.70;;;6.80;;
8086;SDS011;4086;54.412;9.980;2023-03-03T08:58:07;7.07;;;6.17;;
8086;SDS011;4086;54.412;9.980;2023-03-03T09:00:34;7.00;;;6.33;;
8086;SDS011;4086;54.412;9.980;2023-03-03T09:03:02;6.97;;;5.90;;
8086;SDS011;4086;54.412;9.980;2023-03-03T09:05:31;7.20;;;6.50;;
8086;SDS011;4086;54.412;9.980;2023-03-03T09:07:57;6.87;;;5.90;;
8086;SDS011;4086;54.412;9.980;2023-03-03T09:10:25;7.57;;;6.40;;
8086;SDS011;4086;54.412;9.980;2023-03-03T09:12:55;6.80;;;6.10;;
8086;SDS011;4086;54.412;9.980;2023-03-03T09:15:25;7.27;;;5.57;;
8086;SDS011;4086;54.412;9.980;2023-03-03T09:17:53;5.90;;;5.20;;
8086;SDS011;4086;54.412;9.980;2023-03-03T09:20:22;7.47;;;6.07;;
8086;SDS011;4086;54.412;9.980;2023-03-03T09:23:15;8.67;;;6.60;;
8086;SDS011;4086;54.412;9.980;2023-03-03T09:25:51;6.93;;;5.83;;
8086;SDS011;4086;54.412;9.980;2023-03-03T09:28:18;7.00;;;6.30;;
8086;SDS011;4086;54.412;9.980;2023-03-03T09:30:50;6.30;;;5.63;;
8086;SDS011;4086;54.412;9.980;2023-03-03T09:33:22;7.00;;;6.30;;
8086;SDS011;4086;54.412;9.980;2023-03-03T09:35:56;6.90;;;6.20;;
8086;SDS011;4086;54.412;9.980;2023-03-03T09:38:27;6.60;;;5.90;;
8086;SDS011;4086;54.412;9.980;2023-03-03T09:41:00;7.33;;;5.47;;
8086;SDS011;4086;54.412;9.980;2023-03-03T09:43:36;6.70;;;5.57;;
8086;SDS011;4086;54.412;9.980;2023-03-03T09:46:09;6.13;;;5.53;;
8086;SDS011;4086;54.412;9.980;2023-03-03T09:51:50;5.97;;;5.10;;
8086;SDS011;4086;54.412;9.980;2023-03-03T09:54:27;4.97;;;4.37;;
8086;SDS011;4086;54.412;9.980;2023-03-03T09:56:59;5.97;;;4.70;;
8086;SDS011;4086;54.412;9.980;2023-03-03T09:59:34;5.20;;;4.13;;
8086;SDS011;4086;54.412;9.980;2023-03-03T10:02:12;5.47;;;4.03;;
8086;SDS011;4086;54.412;9.980;2023-03-03T10:05:01;5.60;;;3.87;;
8086;SDS011;4086;54.412;9.980;2023-03-03T10:07:38;5.30;;;4.23;;
8086;SDS011;4086;54.412;9.980;2023-03-03T10:12:58;5.63;;;3.77;;
8086;SDS011;4086;54.412;9.980;2023-03-03T10:15:33;4.73;;;3.30;;
8086;SDS011;4086;54.412;9.980;2023-03-03T10:18:10;3.70;;;3.20;;
8086;SDS011;4086;54.412;9.980;2023-03-03T10:20:46;3.50;;;3.00;;
8086;SDS011;4086;54.412;9.980;2023-03-03T10:23:19;3.60;;;3.10;;
8086;SDS011;4086;54.412;9.980;2023-03-03T10:25:50;4.20;;;2.80;;
8086;SDS011;4086;54.412;9.980;2023-03-03T10:28:23;4.70;;;2.97;;
8086;SDS011;4086;54.412;9.980;2023-03-03T10:31:00;4.33;;;2.60;;
8086;SDS011;4086;54.412;9.980;2023-03-03T10:33:34;3.70;;;2.93;;
8086;SDS011;4086;54.412;9.980;2023-03-03T10:36:17;5.20;;;2.50;;
8086;SDS011;4086;54.412;9.980;2023-03-03T10:38:51;3.80;;;2.57;;
8086;SDS011;4086;54.412;9.980;2023-03-03T10:41:37;5.50;;;2.57;;
8086;SDS011;4086;54.412;9.980;2023-03-03T10:44:16;3.93;;;2.90;;
8086;SDS011;4086;54.412;9.980;2023-03-03T10:46:59;4.37;;;3.10;;
8086;SDS011;4086;54.412;9.980;2023-03-03T10:49:50;5.03;;;2.77;;
8086;SDS011;4086;54.412;9.980;2023-03-03T10:52:29;4.10;;;2.40;;
8086;SDS011;4086;54.412;9.980;2023-03-03T10:57:49;4.23;;;2.90;;
8086;SDS011;4086;54.412;9.980;2023-03-03T11:00:26;6.60;;;3.17;;
8086;SDS011;4086;54.412;9.980;2023-03-03T11:03:00;4.90;;;3.13;;
8086;SDS011;4086;54.412;9.980;2023-03-03T11:05:45;4.87;;;2.93;;
8086;SDS011;4086;54.412;9.980;2023-03-03T11:08:14;4.73;;;2.60;;
8086;SDS011;4086;54.412;9.980;2023-03-03T11:10:47;5.30;;;2.90;;
8086;SDS011;4086;54.412;9.980;2023-03-03T11:13:18;3.43;;;2.47;;
8086;SDS011;4086;54.412;9.980;2023-03-03T11:15:58;5.07;;;2.80;;
8086;SDS011;4086;54.412;9.980;2023-03-03T11:18:33;6.27;;;2.80;;
8086;SDS011;4086;54.412;9.980;2023-03-03T11:21:07;4.47;;;2.80;;
8086;SDS011;4086;54.412;9.980;2023-03-03T11:23:44;5.87;;;2.57;;
8086;SDS011;4086;54.412;9.980;2023-03-03T11:26:21;5.80;;;3.37;;
8086;SDS011;4086;54.412;9.980;2023-03-03T11:28:59;9.33;;;3.17;;
8086;SDS011;4086;54.412;9.980;2023-03-03T11:31:32;7.33;;;2.60;;
8086;SDS011;4086;54.412;9.980;2023-03-03T11:34:05;4.83;;;2.63;;
8086;SDS011;4086;54.412;9.980;2023-03-03T11:36:43;3.50;;;2.90;;
8086;SDS011;4086;54.412;9.980;2023-03-03T11:39:12;6.53;;;3.60;;
8086;SDS011;4086;54.412;9.980;2023-03-03T11:41:40;5.27;;;3.53;;
8086;SDS011;4086;54.412;9.980;2023-03-03T11:44:09;6.57;;;3.10;;
8086;SDS011;4086;54.412;9.980;2023-03-03T11:46:43;5.47;;;3.03;;
8086;SDS011;4086;54.412;9.980;2023-03-03T11:49:13;5.90;;;3.00;;
8086;SDS011;4086;54.412;9.980;2023-03-03T11:51:46;5.23;;;2.20;;
8086;SDS011;4086;54.412;9.980;2023-03-03T11:54:17;7.27;;;2.40;;
8086;SDS011;4086;54.412;9.980;2023-03-03T11:56:46;4.83;;;1.93;;
8086;SDS011;4086;54.412;9.980;2023-03-03T11:59:19;7.30;;;1.97;;
8086;SDS011;4086;54.412;9.980;2023-03-03T12:01:58;8.93;;;1.77;;
8086;SDS011;4086;54.412;9.980;2023-03-03T12:04:30;7.73;;;1.50;;
8086;SDS011;4086;54.412;9.980;2023-03-03T12:07:05;6.37;;;1.50;;
8086;SDS011;4086;54.412;9.980;2023-03-03T12:09:39;4.00;;;2.07;;
8086;SDS011;4086;54.412;9.980;2023-03-03T12:12:11;3.77;;;1.30;;
8086;SDS011;4086;54.412;9.980;2023-03-03T12:14:52;7.87;;;1.73;;
8086;SDS011;4086;54.412;9.980;2023-03-03T12:17:37;3.53;;;1.73;;
8086;SDS011;4086;54.412;9.980;2023-03-03T12:20:12;5.97;;;1.73;;
8086;SDS011;4086;54.412;9.980;2023-03-03T12:22:43;4.63;;;1.50;;
8086;SDS011;4086;54.412;9.980;2023-03-03T12:25:21;5.57;;;1.57;;
8086;SDS011;4086;54.412;9.980;2023-03-03T12:27:52;5.03;;;1.67;;
8086;SDS011;4086;54.412;9.980;2023-03-03T12:30:26;5.63;;;2.00;;
8086;SDS011;4086;54.412;9.980;2023-03-03T12:33:01;4.87;;;1.63;;
8086;SDS011;4086;54.412;9.980;2023-03-03T12:35:34;5.57;;;1.90;;
8086;SDS011;4086;54.412;9.980;2023-03-03T12:38:07;6.33;;;2.00;;
8086;SDS011;4086;54.412;9.980;2023-03-03T12:40:37;4.87;;;1.27;;
8086;SDS011;4086;54.412;9.980;2023-03-03T12:43:12;4.93;;;1.30;;
8086;SDS011;4086;54.412;9.980;2023-03-03T12:45:45;4.70;;;1.30;;
8086;SDS011;4086;54.412;9.980;2023-03-03T12:48:18;5.73;;;1.93;;
8086;SDS011;4086;54.412;9.980;2023-03-03T12:50:49;6.73;;;2.37;;
8086;SDS011;4086;54.412;9.980;2023-03-03T12:56:28;5.57;;;1.83;;
8086;SDS011;4086;54.412;9.980;2023-03-03T12:58:59;5.77;;;1.50;;
8086;SDS011;4086;54.412;9.980;2023-03-03T13:01:32;4.90;;;1.87;;
8086;SDS011;4086;54.412;9.980;2023-03-03T13:04:04;5.87;;;2.00;;
8086;SDS011;4086;54.412;9.980;2023-03-03T13:06:34;8.53;;;2.10;;
8086;SDS011;4086;54.412;9.980;2023-03-03T13:09:10;7.07;;;2.40;;
8086;SDS011;4086;54.412;9.980;2023-03-03T13:11:46;8.90;;;1.80;;
8086;SDS011;4086;54.412;9.980;2023-03-03T13:14:22;5.27;;;1.80;;
8086;SDS011;4086;54.412;9.980;2023-03-03T13:17:00;5.43;;;2.00;;
8086;SDS011;4086;54.412;9.980;2023-03-03T13:19:30;5.47;;;2.00;;
8086;SDS011;4086;54.412;9.980;2023-03-03T13:21:59;7.03;;;1.93;;
8086;SDS011;4086;54.412;9.980;2023-03-03T13:24:34;9.77;;;2.20;;
8086;SDS011;4086;54.412;9.980;2023-03-03T13:27:04;7.70;;;2.50;;
8086;SDS011;4086;54.412;9.980;2023-03-03T13:29:33;6.70;;;2.60;;
8086;SDS011;4086;54.412;9.980;2023-03-03T13:32:02;6.57;;;1.77;;
8086;SDS011;4086;54.412;9.980;2023-03-03T13:34:33;3.53;;;1.60;;
8086;SDS011;4086;54.412;9.980;2023-03-03T13:37:06;3.53;;;1.60;;
8086;SDS011;4086;54.412;9.980;2023-03-03T13:39:41;7.30;;;2.00;;
8086;SDS011;4086;54.412;9.980;2023-03-03T13:42:14;7.20;;;1.80;;
8086;SDS011;4086;54.412;9.980;2023-03-03T13:44:45;10.20;;;2.33;;
8086;SDS011;4086;54.412;9.980;2023-03-03T13:47:15;5.73;;;1.73;;
8086;SDS011;4086;54.412;9.980;2023-03-03T13:49:54;7.63;;;2.30;;
8086;SDS011;4086;54.412;9.980;2023-03-03T13:52:28;7.63;;;2.40;;
8086;SDS011;4086;54.412;9.980;2023-03-03T13:55:02;5.60;;;2.13;;
8086;SDS011;4086;54.412;9.980;2023-03-03T13:57:41;8.40;;;2.70;;
8086;SDS011;4086;54.412;9.980;2023-03-03T14:00:15;11.03;;;2.50;;
8086;SDS011;4086;54.412;9.980;2023-03-03T14:02:53;9.83;;;2.50;;
8086;SDS011;4086;54.412;9.980;2023-03-03T14:05:25;9.43;;;1.93;;
8086;SDS011;4086;54.412;9.980;2023-03-03T14:07:56;10.20;;;2.83;;
8086;SDS011;4086;54.412;9.980;2023-03-03T14:10:26;14.47;;;3.33;;
8086;SDS011;4086;54.412;9.980;2023-03-03T14:12:57;8.20;;;2.03;;
8086;SDS011;4086;54.412;9.980;2023-03-03T14:15:28;8.23;;;2.10;;
8086;SDS011;4086;54.412;9.980;2023-03-03T14:20:48;9.37;;;2.57;;
8086;SDS011;4086;54.412;9.980;2023-03-03T14:23:18;13.17;;;3.00;;
8086;SDS011;4086;54.412;9.980;2023-03-03T14:25:52;11.27;;;2.60;;
8086;SDS011;4086;54.412;9.980;2023-03-03T14:28:22;7.67;;;2.27;;
8086;SDS011;4086;54.412;9.980;2023-03-03T14:30:51;8.00;;;2.50;;
8086;SDS011;4086;54.412;9.980;2023-03-03T14:33:20;12.93;;;2.20;;
8086;SDS011;4086;54.412;9.980;2023-03-03T14:35:49;11.30;;;2.63;;
8086;SDS011;4086;54.412;9.980;2023-03-03T14:38:17;8.27;;;2.00;;
8086;SDS011;4086;54.412;9.980;2023-03-03T14:40:46;12.30;;;2.60;;
8086;SDS011;4086;54.412;9.980;2023-03-03T14:43:22;8.93;;;2.70;;
8086;SDS011;4086;54.412;9.980;2023-03-03T14:45:50;12.70;;;3.30;;
8086;SDS011;4086;54.412;9.980;2023-03-03T14:48:17;13.20;;;2.97;;
8086;SDS011;4086;54.412;9.980;2023-03-03T14:50:47;15.73;;;2.43;;
8086;SDS011;4086;54.412;9.980;2023-03-03T14:53:19;9.30;;;2.10;;
8086;SDS011;4086;54.412;9.980;2023-03-03T14:55:47;9.43;;;2.80;;
8086;SDS011;4086;54.412;9.980;2023-03-03T14:58:27;15.47;;;2.97;;
8086;SDS011;4086;54.412;9.980;2023-03-03T15:01:05;10.13;;;2.27;;
8086;SDS011;4086;54.412;9.980;2023-03-03T15:03:33;12.87;;;3.03;;
8086;SDS011;4086;54.412;9.980;2023-03-03T15:06:06;8.97;;;2.60;;
8086;SDS011;4086;54.412;9.980;2023-03-03T15:08:36;11.70;;;2.70;;
8086;SDS011;4086;54.412;9.980;2023-03-03T15:11:12;13.60;;;2.90;;
8086;SDS011;4086;54.412;9.980;2023-03-03T15:13:41;11.40;;;2.23;;
8086;SDS011;4086;54.412;9.980;2023-03-03T15:16:09;12.37;;;2.43;;
8086;SDS011;4086;54.412;9.980;2023-03-03T15:21:33;14.17;;;2.27;;
8086;SDS011;4086;54.412;9.980;2023-03-03T15:24:02;13.53;;;3.03;;
8086;SDS011;4086;54.412;9.980;2023-03-03T15:26:35;12.27;;;2.70;;
8086;SDS011;4086;54.412;9.980;2023-03-03T15:29:11;11.30;;;2.90;;
8086;SDS011;4086;54.412;9.980;2023-03-03T15:31:42;15.93;;;2.93;;
8086;SDS011;4086;54.412;9.980;2023-03-03T15:34:21;15.50;;;3.17;;
8086;SDS011;4086;54.412;9.980;2023-03-03T15:36:53;9.53;;;3.07;;
8086;SDS011;4086;54.412;9.980;2023-03-03T15:39:25;14.70;;;2.97;;
8086;SDS011;4086;54.412;9.980;2023-03-03T15:41:56;17.70;;;3.27;;
8086;SDS011;4086;54.412;9.980;2023-03-03T15:44:30;16.50;;;3.23;;